sensor_id;sensor_type;location;lat;lon;timestamp;temperature;humidity
12811;DHT22;6470;47.654;7.896;2023-01-15T00:01:35;8.50;99.90
12811;DHT22;6470;47.654;7.896;2023-01-15T00:04:05;8.70;99.90
12811;DHT22;6470;47.654;7.896;2023-01-15T00:06:35;8.30;99.90
12811;DHT22;6470;47.654;7.896;2023-01-15T00:11:27;8.00;99.90
12811;DHT22;6470;47.654;7.896;2023-01-15T00:16:21;9.20;99.90
12811;DHT22;6470;47.654;7.896;2023-01-15T00:18:52;8.10;99.90
12811;DHT22;6470;47.654;7.896;2023-01-15T00:21:19;8.80;99.90
12811;DHT22;6470;47.654;7.896;2023-01-15T00:26:31;9.10;99.90
12811;DHT22;6470;47.654;7.896;2023-01-15T00:29:16;8.60;99.90
12811;DHT22;6470;47.654;7.896;2023-01-15T00:31:44;7.10;99.90
12811;DHT22;6470;47.654;7.896;2023-01-15T00:36:41;8.00;99.90
12811;DHT22;6470;47.654;7.896;2023-01-15T00:39:07;8.50;99.90
12811;DHT22;6470;47.654;7.896;2023-01-15T00:41:33;9.00;99.90
12811;DHT22;6470;47.654;7.896;2023-01-15T00:43:58;8.10;99.90
12811;DHT22;6470;47.654;7.896;2023-01-15T00:48:50;8.70;99.90
12811;DHT22;6470;47.654;7.896;2023-01-15T00:51:16;8.80;99.90
12811;DHT22;6470;47.654;7.896;2023-01-15T00:53:42;9.10;99.90
12811;DHT22;6470;47.654;7.896;2023-01-15T00:56:07;9.00;99.90
12811;DHT22;6470;47.654;7.896;2023-01-15T00:58:33;8.90;99.90
12811;DHT22;6470;47.654;7.896;2023-01-15T01:00:59;9.20;99.90
12811;DHT22;6470;47.654;7.896;2023-01-15T01:03:25;9.20;99.90
12811;DHT22;6470;47.654;7.896;2023-01-15T01:05:51;9.10;99.90
12811;DHT22;6470;47.654;7.896;2023-01-15T01:08:18;9.40;99.90
12811;DHT22;6470;47.654;7.896;2023-01-15T01:10:44;9.10;99.90
12811;DHT22;6470;47.654;7.896;2023-01-15T01:13:10;8.70;99.90
12811;DHT22;6470;47.654;7.896;2023-01-15T01:15:36;8.60;99.90
12811;DHT22;6470;47.654;7.896;2023-01-15T01:18:03;8.60;99.90
12811;DHT22;6470;47.654;7.896;2023-01-15T01:20:31;7.00;99.90
12811;DHT22;6470;47.654;7.896;2023-01-15T01:22:57;8.30;99.90
12811;DHT22;6470;47.654;7.896;2023-01-15T01:27:49;9.20;99.90
12811;DHT22;6470;47.654;7.896;2023-01-15T01:30:14;8.50;99.90
12811;DHT22;6470;47.654;7.896;2023-01-15T01:32:43;8.30;99.90
12811;DHT22;6470;47.654;7.896;2023-01-15T01:35:10;8.60;99.90
12811;DHT22;6470;47.654;7.896;2023-01-15T01:37:35;8.90;99.90
12811;DHT22;6470;47.654;7.896;2023-01-15T01:40:01;9.30;99.90
12811;DHT22;6470;47.654;7.896;2023-01-15T01:42:27;8.20;99.90
12811;DHT22;6470;47.654;7.896;2023-01-15T01:44:59;8.00;99.90
12811;DHT22;6470;47.654;7.896;2023-01-15T01:47:26;7.10;99.90
12811;DHT22;6470;47.654;7.896;2023-01-15T01:49:58;7.50;99.90
12811;DHT22;6470;47.654;7.896;2023-01-15T01:52:28;7.80;99.90
12811;DHT22;6470;47.654;7.896;2023-01-15T01:54:55;8.70;99.90
12811;DHT22;6470;47.654;7.896;2023-01-15T01:57:22;9.00;99.90
12811;DHT22;6470;47.654;7.896;2023-01-15T01:59:49;8.70;99.90
12811;DHT22;6470;47.654;7.896;2023-01-15T02:02:17;8.80;99.90
12811;DHT22;6470;47.654;7.896;2023-01-15T02:04:44;9.20;99.90
12811;DHT22;6470;47.654;7.896;2023-01-15T02:07:11;8.80;99.90
12811;DHT22;6470;47.654;7.896;2023-01-15T02:09:37;9.10;99.90
12811;DHT22;6470;47.654;7.896;2023-01-15T02:12:16;9.20;99.90
12811;DHT22;6470;47.654;7.896;2023-01-15T02:15:03;9.40;99.90
12811;DHT22;6470;47.654;7.896;2023-01-15T02:17:43;9.30;99.90
12811;DHT22;6470;47.654;7.896;2023-01-15T02:20:22;8.40;99.90
12811;DHT22;6470;47.654;7.896;2023-01-15T02:24:06;9.30;99.90
12811;DHT22;6470;47.654;7.896;2023-01-15T02:29:12;8.60;99.90
12811;DHT22;6470;47.654;7.896;2023-01-15T02:31:42;9.30;99.90
12811;DHT22;6470;47.654;7.896;2023-01-15T02:34:30;7.10;99.90
12811;DHT22;6470;47.654;7.896;2023-01-15T02:37:11;9.10;99.90
12811;DHT22;6470;47.654;7.896;2023-01-15T02:39:40;8.40;99.90
12811;DHT22;6470;47.654;7.896;2023-01-15T02:42:08;9.60;99.90
12811;DHT22;6470;47.654;7.896;2023-01-15T02:44:40;8.50;99.90
12811;DHT22;6470;47.654;7.896;2023-01-15T02:47:09;8.50;99.90
12811;DHT22;6470;47.654;7.896;2023-01-15T02:49:36;8.10;99.90
12811;DHT22;6470;47.654;7.896;2023-01-15T02:52:19;9.50;99.90
12811;DHT22;6470;47.654;7.896;2023-01-15T02:55:08;8.70;99.90
12811;DHT22;6470;47.654;7.896;2023-01-15T02:57:36;6.90;99.90
12811;DHT22;6470;47.654;7.896;2023-01-15T03:00:07;9.70;99.90
12811;DHT22;6470;47.654;7.896;2023-01-15T03:02:40;9.60;99.90
12811;DHT22;6470;47.654;7.896;2023-01-15T03:05:38;10.30;99.90
12811;DHT22;6470;47.654;7.896;2023-01-15T03:08:06;10.70;99.90
12811;DHT22;6470;47.654;7.896;2023-01-15T03:11:03;9.90;99.90
12811;DHT22;6470;47.654;7.896;2023-01-15T03:13:51;10.20;99.90
12811;DHT22;6470;47.654;7.896;2023-01-15T03:21:51;9.80;99.90
12811;DHT22;6470;47.654;7.896;2023-01-15T03:24:35;12.40;99.90
12811;DHT22;6470;47.654;7.896;2023-01-15T03:27:02;10.10;99.90
12811;DHT22;6470;47.654;7.896;2023-01-15T03:29:32;12.10;99.90
12811;DHT22;6470;47.654;7.896;2023-01-15T03:31:59;11.00;99.90
12811;DHT22;6470;47.654;7.896;2023-01-15T03:34:30;10.00;99.90
12811;DHT22;6470;47.654;7.896;2023-01-15T03:36:57;9.80;99.90
12811;DHT22;6470;47.654;7.896;2023-01-15T03:39:23;10.30;99.90
12811;DHT22;6470;47.654;7.896;2023-01-15T03:44:46;9.60;99.90
12811;DHT22;6470;47.654;7.896;2023-01-15T03:47:34;9.80;99.90
12811;DHT22;6470;47.654;7.896;2023-01-15T03:58:44;9.50;99.90
12811;DHT22;6470;47.654;7.896;2023-01-15T04:01:21;9.60;99.90
12811;DHT22;6470;47.654;7.896;2023-01-15T04:03:48;9.40;99.90
12811;DHT22;6470;47.654;7.896;2023-01-15T04:08:41;9.30;99.90
12811;DHT22;6470;47.654;7.896;2023-01-15T04:11:08;9.50;99.90
12811;DHT22;6470;47.654;7.896;2023-01-15T04:13:34;9.20;99.90
12811;DHT22;6470;47.654;7.896;2023-01-15T04:18:27;9.40;99.90
12811;DHT22;6470;47.654;7.896;2023-01-15T04:20:53;8.60;99.90
12811;DHT22;6470;47.654;7.896;2023-01-15T04:23:20;8.50;99.90
12811;DHT22;6470;47.654;7.896;2023-01-15T04:25:46;9.30;99.90
12811;DHT22;6470;47.654;7.896;2023-01-15T04:28:12;8.90;99.90
12811;DHT22;6470;47.654;7.896;2023-01-15T04:30:38;9.50;99.90
12811;DHT22;6470;47.654;7.896;2023-01-15T04:35:30;9.00;99.90
12811;DHT22;6470;47.654;7.896;2023-01-15T04:37:57;6.80;99.90
12811;DHT22;6470;47.654;7.896;2023-01-15T04:40:23;9.10;99.90
12811;DHT22;6470;47.654;7.896;2023-01-15T04:43:10;9.40;99.90
12811;DHT22;6470;47.654;7.896;2023-01-15T04:45:55;9.40;99.90
12811;DHT22;6470;47.654;7.896;2023-01-15T04:48:21;9.30;99.90
12811;DHT22;6470;47.654;7.896;2023-01-15T04:50:47;9.30;99.90
12811;DHT22;6470;47.654;7.896;2023-01-15T04:53:13;9.30;99.90
12811;DHT22;6470;47.654;7.896;2023-01-15T04:55:38;9.20;99.90
12811;DHT22;6470;47.654;7.896;2023-01-15T04:58:04;9.40;99.90
12811;DHT22;6470;47.654;7.896;2023-01-15T05:00:30;9.10;99.90
12811;DHT22;6470;47.654;7.896;2023-01-15T05:02:55;8.70;99.90
12811;DHT22;6470;47.654;7.896;2023-01-15T05:05:21;9.10;99.90
12811;DHT22;6470;47.654;7.896;2023-01-15T05:07:47;9.30;99.90
12811;DHT22;6470;47.654;7.896;2023-01-15T05:10:12;9.20;99.90
12811;DHT22;6470;47.654;7.896;2023-01-15T05:12:38;9.20;99.90
12811;DHT22;6470;47.654;7.896;2023-01-15T05:15:04;9.20;99.90
12811;DHT22;6470;47.654;7.896;2023-01-15T05:17:31;8.70;99.90
12811;DHT22;6470;47.654;7.896;2023-01-15T05:19:57;9.70;99.90
12811;DHT22;6470;47.654;7.896;2023-01-15T05:22:23;9.30;99.90
12811;DHT22;6470;47.654;7.896;2023-01-15T05:24:49;9.00;99.90
12811;DHT22;6470;47.654;7.896;2023-01-15T05:27:15;9.40;99.90
12811;DHT22;6470;47.654;7.896;2023-01-15T05:29:40;9.30;99.90
12811;DHT22;6470;47.654;7.896;2023-01-15T05:32:06;9.30;99.90
12811;DHT22;6470;47.654;7.896;2023-01-15T05:34:32;8.80;99.90
12811;DHT22;6470;47.654;7.896;2023-01-15T05:36:57;9.10;99.90
12811;DHT22;6470;47.654;7.896;2023-01-15T05:39:23;9.50;99.90
12811;DHT22;6470;47.654;7.896;2023-01-15T05:41:49;8.90;99.90
12811;DHT22;6470;47.654;7.896;2023-01-15T05:44:35;9.40;99.90
12811;DHT22;6470;47.654;7.896;2023-01-15T05:47:01;8.90;99.90
12811;DHT22;6470;47.654;7.896;2023-01-15T05:49:28;9.30;99.90
12811;DHT22;6470;47.654;7.896;2023-01-15T05:51:56;9.20;99.90
12811;DHT22;6470;47.654;7.896;2023-01-15T05:54:24;10.00;99.90
12811;DHT22;6470;47.654;7.896;2023-01-15T05:56:50;8.80;99.90
12811;DHT22;6470;47.654;7.896;2023-01-15T05:59:19;8.90;99.90
12811;DHT22;6470;47.654;7.896;2023-01-15T06:01:46;9.20;99.90
12811;DHT22;6470;47.654;7.896;2023-01-15T06:04:12;9.00;99.90
12811;DHT22;6470;47.654;7.896;2023-01-15T06:06:40;9.30;99.90
12811;DHT22;6470;47.654;7.896;2023-01-15T06:09:06;8.50;99.90
12811;DHT22;6470;47.654;7.896;2023-01-15T06:11:31;9.20;99.90
12811;DHT22;6470;47.654;7.896;2023-01-15T06:13:58;8.80;99.90
12811;DHT22;6470;47.654;7.896;2023-01-15T06:16:24;9.10;99.90
12811;DHT22;6470;47.654;7.896;2023-01-15T06:18:50;8.80;99.90
12811;DHT22;6470;47.654;7.896;2023-01-15T06:21:16;9.20;99.90
12811;DHT22;6470;47.654;7.896;2023-01-15T06:23:42;8.90;99.90
12811;DHT22;6470;47.654;7.896;2023-01-15T06:26:17;9.10;99.90
12811;DHT22;6470;47.654;7.896;2023-01-15T06:28:44;9.30;99.90
12811;DHT22;6470;47.654;7.896;2023-01-15T06:31:12;9.40;99.90
12811;DHT22;6470;47.654;7.896;2023-01-15T06:33:38;8.90;99.90
12811;DHT22;6470;47.654;7.896;2023-01-15T06:36:06;9.30;99.90
12811;DHT22;6470;47.654;7.896;2023-01-15T06:38:32;9.40;99.90
12811;DHT22;6470;47.654;7.896;2023-01-15T06:41:00;9.40;99.90
12811;DHT22;6470;47.654;7.896;2023-01-15T06:43:26;9.30;99.90
12811;DHT22;6470;47.654;7.896;2023-01-15T06:46:10;10.00;99.90
12811;DHT22;6470;47.654;7.896;2023-01-15T06:48:55;9.30;99.90
12811;DHT22;6470;47.654;7.896;2023-01-15T06:51:20;9.40;99.90
12811;DHT22;6470;47.654;7.896;2023-01-15T06:53:46;9.30;99.90
12811;DHT22;6470;47.654;7.896;2023-01-15T06:56:13;9.30;99.90
12811;DHT22;6470;47.654;7.896;2023-01-15T06:58:42;9.30;99.90
12811;DHT22;6470;47.654;7.896;2023-01-15T07:01:10;9.10;99.90
12811;DHT22;6470;47.654;7.896;2023-01-15T07:03:36;8.60;99.90
12811;DHT22;6470;47.654;7.896;2023-01-15T07:06:07;8.50;99.90
12811;DHT22;6470;47.654;7.896;2023-01-15T07:11:07;9.30;99.90
12811;DHT22;6470;47.654;7.896;2023-01-15T07:16:01;9.20;99.90
12811;DHT22;6470;47.654;7.896;2023-01-15T07:18:29;9.60;99.90
12811;DHT22;6470;47.654;7.896;2023-01-15T07:20:58;9.20;99.90
12811;DHT22;6470;47.654;7.896;2023-01-15T07:23:25;9.60;99.90
12811;DHT22;6470;47.654;7.896;2023-01-15T07:25:52;9.10;99.90
12811;DHT22;6470;47.654;7.896;2023-01-15T07:28:19;9.00;99.90
12811;DHT22;6470;47.654;7.896;2023-01-15T07:30:45;9.00;99.90
12811;DHT22;6470;47.654;7.896;2023-01-15T07:35:37;9.10;99.90
12811;DHT22;6470;47.654;7.896;2023-01-15T07:38:03;8.80;99.90
12811;DHT22;6470;47.654;7.896;2023-01-15T07:40:29;8.60;99.90
12811;DHT22;6470;47.654;7.896;2023-01-15T07:42:54;8.50;99.90
12811;DHT22;6470;47.654;7.896;2023-01-15T07:45:39;9.10;99.90
12811;DHT22;6470;47.654;7.896;2023-01-15T07:48:25;8.60;99.90
12811;DHT22;6470;47.654;7.896;2023-01-15T07:51:09;8.60;99.90
12811;DHT22;6470;47.654;7.896;2023-01-15T07:53:35;8.70;99.90
12811;DHT22;6470;47.654;7.896;2023-01-15T07:56:01;8.60;99.90
12811;DHT22;6470;47.654;7.896;2023-01-15T07:58:26;8.30;99.90
12811;DHT22;6470;47.654;7.896;2023-01-15T08:00:52;8.00;99.90
12811;DHT22;6470;47.654;7.896;2023-01-15T08:03:18;7.30;99.90
12811;DHT22;6470;47.654;7.896;2023-01-15T08:05:44;8.80;99.90
12811;DHT22;6470;47.654;7.896;2023-01-15T08:08:17;7.80;99.90
12811;DHT22;6470;47.654;7.896;2023-01-15T08:10:43;7.80;99.90
12811;DHT22;6470;47.654;7.896;2023-01-15T08:13:27;7.70;99.90
12811;DHT22;6470;47.654;7.896;2023-01-15T08:18:39;7.30;99.90
12811;DHT22;6470;47.654;7.896;2023-01-15T08:21:05;7.40;99.90
12811;DHT22;6470;47.654;7.896;2023-01-15T08:23:31;7.50;99.90
12811;DHT22;6470;47.654;7.896;2023-01-15T08:26:00;7.10;99.90
12811;DHT22;6470;47.654;7.896;2023-01-15T08:28:26;7.10;99.90
12811;DHT22;6470;47.654;7.896;2023-01-15T08:30:52;6.80;99.90
12811;DHT22;6470;47.654;7.896;2023-01-15T08:33:18;6.60;99.90
12811;DHT22;6470;47.654;7.896;2023-01-15T08:35:44;3.80;99.90
12811;DHT22;6470;47.654;7.896;2023-01-15T08:43:22;6.00;99.90
12811;DHT22;6470;47.654;7.896;2023-01-15T08:45:48;6.90;99.90
12811;DHT22;6470;47.654;7.896;2023-01-15T08:48:14;6.70;99.90
12811;DHT22;6470;47.654;7.896;2023-01-15T08:55:31;3.10;99.90
12811;DHT22;6470;47.654;7.896;2023-01-15T09:00:23;5.20;99.90
12811;DHT22;6470;47.654;7.896;2023-01-15T09:02:49;5.30;99.90
12811;DHT22;6470;47.654;7.896;2023-01-15T09:10:08;5.80;99.90
12811;DHT22;6470;47.654;7.896;2023-01-15T09:12:34;5.30;99.90
12811;DHT22;6470;47.654;7.896;2023-01-15T09:14:59;2.80;99.90
12811;DHT22;6470;47.654;7.896;2023-01-15T09:17:26;4.80;99.90
12811;DHT22;6470;47.654;7.896;2023-01-15T09:24:44;5.10;99.90
12811;DHT22;6470;47.654;7.896;2023-01-15T09:27:11;2.00;99.90
12811;DHT22;6470;47.654;7.896;2023-01-15T09:29:37;5.00;99.90
12811;DHT22;6470;47.654;7.896;2023-01-15T09:32:02;4.80;99.90
12811;DHT22;6470;47.654;7.896;2023-01-15T09:34:28;5.20;99.90
12811;DHT22;6470;47.654;7.896;2023-01-15T09:36:54;5.00;99.90
12811;DHT22;6470;47.654;7.896;2023-01-15T09:39:20;4.70;99.90
12811;DHT22;6470;47.654;7.896;2023-01-15T09:47:39;5.00;99.90
12811;DHT22;6470;47.654;7.896;2023-01-15T09:50:27;2.20;99.90
12811;DHT22;6470;47.654;7.896;2023-01-15T09:53:19;4.60;99.90
12811;DHT22;6470;47.654;7.896;2023-01-15T09:55:49;4.20;99.90
12811;DHT22;6470;47.654;7.896;2023-01-15T09:58:19;4.00;99.90
12811;DHT22;6470;47.654;7.896;2023-01-15T10:00:47;4.80;99.90
12811;DHT22;6470;47.654;7.896;2023-01-15T10:05:44;4.90;99.90
12811;DHT22;6470;47.654;7.896;2023-01-15T10:08:25;4.70;99.90
12811;DHT22;6470;47.654;7.896;2023-01-15T10:11:42;4.40;99.90
12811;DHT22;6470;47.654;7.896;2023-01-15T10:14:12;4.80;99.90
12811;DHT22;6470;47.654;7.896;2023-01-15T10:16:40;4.40;99.90
12811;DHT22;6470;47.654;7.896;2023-01-15T10:19:07;4.30;99.90
12811;DHT22;6470;47.654;7.896;2023-01-15T10:21:55;4.40;99.90
12811;DHT22;6470;47.654;7.896;2023-01-15T10:24:30;3.80;99.90
12811;DHT22;6470;47.654;7.896;2023-01-15T10:27:05;4.50;99.90
12811;DHT22;6470;47.654;7.896;2023-01-15T10:32:38;4.00;99.90
12811;DHT22;6470;47.654;7.896;2023-01-15T10:44:08;4.10;99.90
12811;DHT22;6470;47.654;7.896;2023-01-15T10:49:16;4.50;99.90
12811;DHT22;6470;47.654;7.896;2023-01-15T10:54:20;3.90;99.90
12811;DHT22;6470;47.654;7.896;2023-01-15T11:02:21;1.40;99.90
12811;DHT22;6470;47.654;7.896;2023-01-15T11:04:48;4.60;99.90
12811;DHT22;6470;47.654;7.896;2023-01-15T11:07:14;4.70;99.90
12811;DHT22;6470;47.654;7.896;2023-01-15T11:09:40;4.80;99.90
12811;DHT22;6470;47.654;7.896;2023-01-15T11:12:26;3.90;99.90
12811;DHT22;6470;47.654;7.896;2023-01-15T11:14:52;4.10;99.90
12811;DHT22;6470;47.654;7.896;2023-01-15T11:20:29;4.60;99.90
12811;DHT22;6470;47.654;7.896;2023-01-15T11:22:56;4.10;99.90
12811;DHT22;6470;47.654;7.896;2023-01-15T11:25:30;4.40;99.90
12811;DHT22;6470;47.654;7.896;2023-01-15T11:27:58;3.80;99.90
12811;DHT22;6470;47.654;7.896;2023-01-15T11:30:30;1.20;99.90
12811;DHT22;6470;47.654;7.896;2023-01-15T11:32:59;3.90;99.90
12811;DHT22;6470;47.654;7.896;2023-01-15T11:35:25;4.90;99.90
12811;DHT22;6470;47.654;7.896;2023-01-15T11:38:01;4.40;99.90
12811;DHT22;6470;47.654;7.896;2023-01-15T11:40:27;1.40;99.90
12811;DHT22;6470;47.654;7.896;2023-01-15T11:42:53;4.00;99.90
12811;DHT22;6470;47.654;7.896;2023-01-15T11:45:51;3.90;99.90
12811;DHT22;6470;47.654;7.896;2023-01-15T11:48:47;4.30;99.90
12811;DHT22;6470;47.654;7.896;2023-01-15T11:51:37;4.30;99.90
12811;DHT22;6470;47.654;7.896;2023-01-15T11:54:10;4.30;99.90
12811;DHT22;6470;47.654;7.896;2023-01-15T11:56:41;3.80;99.90
12811;DHT22;6470;47.654;7.896;2023-01-15T11:59:13;4.40;99.90
12811;DHT22;6470;47.654;7.896;2023-01-15T12:01:49;4.40;99.90
12811;DHT22;6470;47.654;7.896;2023-01-15T12:04:48;4.40;99.90
12811;DHT22;6470;47.654;7.896;2023-01-15T12:07:18;3.70;99.90
12811;DHT22;6470;47.654;7.896;2023-01-15T12:12:51;4.50;99.90
12811;DHT22;6470;47.654;7.896;2023-01-15T12:15:33;3.60;99.90
12811;DHT22;6470;47.654;7.896;2023-01-15T12:18:41;4.30;99.90
12811;DHT22;6470;47.654;7.896;2023-01-15T12:21:18;1.60;99.90
12811;DHT22;6470;47.654;7.896;2023-01-15T12:29:03;4.80;99.90
12811;DHT22;6470;47.654;7.896;2023-01-15T12:32:03;3.80;99.90
12811;DHT22;6470;47.654;7.896;2023-01-15T12:34:46;4.20;99.90
12811;DHT22;6470;47.654;7.896;2023-01-15T12:37:26;4.50;99.90
12811;DHT22;6470;47.654;7.896;2023-01-15T12:42:41;4.70;99.90
12811;DHT22;6470;47.654;7.896;2023-01-15T12:45:53;4.40;99.90
12811;DHT22;6470;47.654;7.896;2023-01-15T12:50:51;4.40;99.90
12811;DHT22;6470;47.654;7.896;2023-01-15T12:59:06;4.00;99.90
12811;DHT22;6470;47.654;7.896;2023-01-15T13:04:22;4.60;99.90
12811;DHT22;6470;47.654;7.896;2023-01-15T13:07:16;4.60;99.90
12811;DHT22;6470;47.654;7.896;2023-01-15T13:09:44;4.40;99.90
12811;DHT22;6470;47.654;7.896;2023-01-15T13:12:16;4.60;99.90
12811;DHT22;6470;47.654;7.896;2023-01-15T13:14:42;4.50;99.90
12811;DHT22;6470;47.654;7.896;2023-01-15T13:19:57;4.80;99.90
12811;DHT22;6470;47.654;7.896;2023-01-15T13:22:27;4.60;99.90
12811;DHT22;6470;47.654;7.896;2023-01-15T13:33:43;5.00;99.90
12811;DHT22;6470;47.654;7.896;2023-01-15T13:36:15;5.10;99.90
12811;DHT22;6470;47.654;7.896;2023-01-15T13:38:46;4.90;99.90
12811;DHT22;6470;47.654;7.896;2023-01-15T13:41:22;5.30;99.90
12811;DHT22;6470;47.654;7.896;2023-01-15T13:44:23;5.10;99.90
12811;DHT22;6470;47.654;7.896;2023-01-15T13:47:05;4.80;99.90
12811;DHT22;6470;47.654;7.896;2023-01-15T13:49:35;2.50;99.90
12811;DHT22;6470;47.654;7.896;2023-01-15T13:52:04;5.00;99.90
12811;DHT22;6470;47.654;7.896;2023-01-15T13:54:32;5.50;99.90
12811;DHT22;6470;47.654;7.896;2023-01-15T13:57:52;4.90;99.90
12811;DHT22;6470;47.654;7.896;2023-01-15T13:59:53;5.40;99.90
12811;DHT22;6470;47.654;7.896;2023-01-15T14:02:28;4.50;99.90
12811;DHT22;6470;47.654;7.896;2023-01-15T14:04:55;5.30;99.90
12811;DHT22;6470;47.654;7.896;2023-01-15T14:07:35;5.10;99.90
12811;DHT22;6470;47.654;7.896;2023-01-15T14:13:12;5.50;99.90
12811;DHT22;6470;47.654;7.896;2023-01-15T14:18:49;5.70;99.90
12811;DHT22;6470;47.654;7.896;2023-01-15T14:24:34;6.10;99.90
12811;DHT22;6470;47.654;7.896;2023-01-15T14:30:09;5.90;99.90
12811;DHT22;6470;47.654;7.896;2023-01-15T14:35:43;6.60;99.90
12811;DHT22;6470;47.654;7.896;2023-01-15T14:38:17;6.60;99.90
12811;DHT22;6470;47.654;7.896;2023-01-15T14:40:56;3.70;99.90
12811;DHT22;6470;47.654;7.896;2023-01-15T14:43:25;6.10;99.90
12811;DHT22;6470;47.654;7.896;2023-01-15T14:45:53;6.10;99.90
12811;DHT22;6470;47.654;7.896;2023-01-15T14:50:47;5.70;99.90
12811;DHT22;6470;47.654;7.896;2023-01-15T14:53:36;3.20;99.90
12811;DHT22;6470;47.654;7.896;2023-01-15T14:58:56;6.00;99.90
12811;DHT22;6470;47.654;7.896;2023-01-15T15:01:40;6.20;99.90
12811;DHT22;6470;47.654;7.896;2023-01-15T15:07:00;6.30;99.90
12811;DHT22;6470;47.654;7.896;2023-01-15T15:09:28;6.30;99.90
12811;DHT22;6470;47.654;7.896;2023-01-15T15:14:49;6.30;99.90
12811;DHT22;6470;47.654;7.896;2023-01-15T15:17:30;5.70;99.90
12811;DHT22;6470;47.654;7.896;2023-01-15T15:20:07;5.50;99.90
12811;DHT22;6470;47.654;7.896;2023-01-15T15:22:40;3.10;99.90
12811;DHT22;6470;47.654;7.896;2023-01-15T15:25:16;3.00;99.90
12811;DHT22;6470;47.654;7.896;2023-01-15T15:27:43;6.00;99.90
12811;DHT22;6470;47.654;7.896;2023-01-15T15:30:11;5.60;99.90
12811;DHT22;6470;47.654;7.896;2023-01-15T15:32:40;5.60;99.90
12811;DHT22;6470;47.654;7.896;2023-01-15T15:35:39;5.60;99.90
12811;DHT22;6470;47.654;7.896;2023-01-15T15:38:15;5.30;99.90
12811;DHT22;6470;47.654;7.896;2023-01-15T15:40:45;5.80;99.90
12811;DHT22;6470;47.654;7.896;2023-01-15T15:43:23;5.40;99.90
12811;DHT22;6470;47.654;7.896;2023-01-15T15:46:32;5.30;99.90
12811;DHT22;6470;47.654;7.896;2023-01-15T15:49:17;5.10;99.90
12811;DHT22;6470;47.654;7.896;2023-01-15T15:51:53;2.50;99.90
12811;DHT22;6470;47.654;7.896;2023-01-15T15:54:25;5.10;99.90
12811;DHT22;6470;47.654;7.896;2023-01-15T15:57:13;5.20;99.90
12811;DHT22;6470;47.654;7.896;2023-01-15T15:59:51;4.90;99.90
12811;DHT22;6470;47.654;7.896;2023-01-15T16:02:23;2.20;99.90
12811;DHT22;6470;47.654;7.896;2023-01-15T16:04:58;4.40;99.90
12811;DHT22;6470;47.654;7.896;2023-01-15T16:07:32;4.80;99.90
12811;DHT22;6470;47.654;7.896;2023-01-15T16:10:31;5.00;99.90
12811;DHT22;6470;47.654;7.896;2023-01-15T16:12:59;1.90;99.90
12811;DHT22;6470;47.654;7.896;2023-01-15T16:15:28;5.00;99.90
12811;DHT22;6470;47.654;7.896;2023-01-15T16:17:56;5.10;99.90
12811;DHT22;6470;47.654;7.896;2023-01-15T16:20:23;5.30;99.90
12811;DHT22;6470;47.654;7.896;2023-01-15T16:22:59;5.10;99.90
12811;DHT22;6470;47.654;7.896;2023-01-15T16:25:37;5.20;99.90
12811;DHT22;6470;47.654;7.896;2023-01-15T16:28:04;5.00;99.90
12811;DHT22;6470;47.654;7.896;2023-01-15T16:30:31;4.60;99.90
12811;DHT22;6470;47.654;7.896;2023-01-15T16:33:06;5.20;99.90
12811;DHT22;6470;47.654;7.896;2023-01-15T16:35:33;4.70;99.90
12811;DHT22;6470;47.654;7.896;2023-01-15T16:38:02;4.50;99.90
12811;DHT22;6470;47.654;7.896;2023-01-15T16:43:09;4.90;99.90
12811;DHT22;6470;47.654;7.896;2023-01-15T16:50:50;4.70;99.90
12811;DHT22;6470;47.654;7.896;2023-01-15T16:55:54;4.70;99.90
12811;DHT22;6470;47.654;7.896;2023-01-15T17:01:00;3.40;99.90
12811;DHT22;6470;47.654;7.896;2023-01-15T17:03:39;3.40;99.90
12811;DHT22;6470;47.654;7.896;2023-01-15T17:06:11;3.70;99.90
12811;DHT22;6470;47.654;7.896;2023-01-15T17:08:38;3.50;99.90
12811;DHT22;6470;47.654;7.896;2023-01-15T17:11:06;3.70;99.90
12811;DHT22;6470;47.654;7.896;2023-01-15T17:13:41;4.20;99.90
12811;DHT22;6470;47.654;7.896;2023-01-15T17:16:19;4.00;99.90
12811;DHT22;6470;47.654;7.896;2023-01-15T17:18:46;4.10;99.90
12811;DHT22;6470;47.654;7.896;2023-01-15T17:21:18;3.50;99.90
12811;DHT22;6470;47.654;7.896;2023-01-15T17:23:47;3.10;99.90
12811;DHT22;6470;47.654;7.896;2023-01-15T17:26:16;3.60;99.90
12811;DHT22;6470;47.654;7.896;2023-01-15T17:28:43;3.80;99.90
12811;DHT22;6470;47.654;7.896;2023-01-15T17:31:23;4.20;99.90
12811;DHT22;6470;47.654;7.896;2023-01-15T17:33:49;3.30;99.90
12811;DHT22;6470;47.654;7.896;2023-01-15T17:36:19;3.50;99.90
12811;DHT22;6470;47.654;7.896;2023-01-15T17:38:45;3.70;99.90
12811;DHT22;6470;47.654;7.896;2023-01-15T17:41:12;3.70;99.90
12811;DHT22;6470;47.654;7.896;2023-01-15T17:43:39;3.30;99.90
12811;DHT22;6470;47.654;7.896;2023-01-15T17:46:04;3.20;99.90
12811;DHT22;6470;47.654;7.896;2023-01-15T17:51:01;3.00;99.90
12811;DHT22;6470;47.654;7.896;2023-01-15T17:53:27;3.60;99.90
12811;DHT22;6470;47.654;7.896;2023-01-15T17:55:53;3.10;99.90
12811;DHT22;6470;47.654;7.896;2023-01-15T18:01:24;3.30;99.90
12811;DHT22;6470;47.654;7.896;2023-01-15T18:04:30;3.10;99.90
12811;DHT22;6470;47.654;7.896;2023-01-15T18:07:19;2.80;99.90
12811;DHT22;6470;47.654;7.896;2023-01-15T18:09:45;3.50;99.90
12811;DHT22;6470;47.654;7.896;2023-01-15T18:12:11;0.30;99.90
12811;DHT22;6470;47.654;7.896;2023-01-15T18:14:37;2.70;99.90
12811;DHT22;6470;47.654;7.896;2023-01-15T18:17:03;2.90;99.90
12811;DHT22;6470;47.654;7.896;2023-01-15T18:19:28;2.80;99.90
12811;DHT22;6470;47.654;7.896;2023-01-15T18:21:54;2.50;99.90
12811;DHT22;6470;47.654;7.896;2023-01-15T18:26:47;2.70;99.90
12811;DHT22;6470;47.654;7.896;2023-01-15T18:29:13;2.60;99.90
12811;DHT22;6470;47.654;7.896;2023-01-15T18:34:05;2.50;99.90
12811;DHT22;6470;47.654;7.896;2023-01-15T18:36:31;2.40;99.90
12811;DHT22;6470;47.654;7.896;2023-01-15T18:38:57;2.40;99.90
12811;DHT22;6470;47.654;7.896;2023-01-15T18:41:31;2.40;99.90
12811;DHT22;6470;47.654;7.896;2023-01-15T18:44:12;2.20;99.90
12811;DHT22;6470;47.654;7.896;2023-01-15T18:46:59;2.10;99.90
12811;DHT22;6470;47.654;7.896;2023-01-15T18:49:25;2.40;99.90
12811;DHT22;6470;47.654;7.896;2023-01-15T18:51:51;2.40;99.90
12811;DHT22;6470;47.654;7.896;2023-01-15T18:54:35;2.70;99.90
12811;DHT22;6470;47.654;7.896;2023-01-15T18:57:01;2.70;99.90
12811;DHT22;6470;47.654;7.896;2023-01-15T18:59:27;2.50;99.90
12811;DHT22;6470;47.654;7.896;2023-01-15T19:04:20;2.30;99.90
12811;DHT22;6470;47.654;7.896;2023-01-15T19:06:46;2.50;99.90
12811;DHT22;6470;47.654;7.896;2023-01-15T19:09:12;3.20;99.90
12811;DHT22;6470;47.654;7.896;2023-01-15T19:11:44;2.80;99.90
12811;DHT22;6470;47.654;7.896;2023-01-15T19:14:10;2.70;99.90
12811;DHT22;6470;47.654;7.896;2023-01-15T19:16:54;2.80;99.90
12811;DHT22;6470;47.654;7.896;2023-01-15T19:19:38;2.90;99.90
12811;DHT22;6470;47.654;7.896;2023-01-15T19:22:06;-1.10;99.90
12811;DHT22;6470;47.654;7.896;2023-01-15T19:24:50;2.70;99.90
12811;DHT22;6470;47.654;7.896;2023-01-15T19:27:16;2.20;99.90
12811;DHT22;6470;47.654;7.896;2023-01-15T19:32:08;2.60;99.90
12811;DHT22;6470;47.654;7.896;2023-01-15T19:36:59;2.50;99.90
12811;DHT22;6470;47.654;7.896;2023-01-15T19:39:26;2.70;99.90
12811;DHT22;6470;47.654;7.896;2023-01-15T19:41:52;2.80;99.90
12811;DHT22;6470;47.654;7.896;2023-01-15T19:44:37;1.80;99.90
12811;DHT22;6470;47.654;7.896;2023-01-15T19:47:25;2.50;99.90
12811;DHT22;6470;47.654;7.896;2023-01-15T19:50:13;2.00;99.90